sensor_id;sensor_type;location;lat;lon;timestamp;P1;durP1;ratioP1;P2;durP2;ratioP2
23555;SDS011;11956;53.184;8.578;2023-06-26T00:02:02;8.88;;;7.97;;
23555;SDS011;11956;53.184;8.578;2023-06-26T00:05:03;9.43;;;7.60;;
23555;SDS011;11956;53.184;8.578;2023-06-26T00:08:04;9.65;;;8.35;;
23555;SDS011;11956;53.184;8.578;2023-06-26T00:11:06;8.38;;;7.50;;
23555;SDS011;11956;53.184;8.578;2023-06-26T00:14:06;8.65;;;7.80;;
23555;SDS011;11956;53.184;8.578;2023-06-26T00:17:07;8.20;;;7.38;;
23555;SDS011;11956;53.184;8.578;2023-06-26T00:20:08;8.95;;;7.93;;
23555;SDS011;11956;53.184;8.578;2023-06-26T00:23:13;8.98;;;7.63;;
23555;SDS011;11956;53.184;8.578;2023-06-26T00:26:16;8.98;;;8.02;;
23555;SDS011;11956;53.184;8.578;2023-06-26T00:29:17;8.23;;;7.40;;
23555;SDS011;11956;53.184;8.578;2023-06-26T00:32:18;9.35;;;8.45;;
23555;SDS011;11956;53.184;8.578;2023-06-26T00:35:19;9.35;;;8.10;;
23555;SDS011;11956;53.184;8.578;2023-06-26T00:38:20;8.93;;;8.02;;
23555;SDS011;11956;53.184;8.578;2023-06-26T00:41:21;9.60;;;7.80;;
23555;SDS011;11956;53.184;8.578;2023-06-26T00:44:22;9.65;;;8.05;;
23555;SDS011;11956;53.184;8.578;2023-06-26T00:47:23;8.88;;;7.60;;
23555;SDS011;11956;53.184;8.578;2023-06-26T00:50:25;10.03;;;8.40;;
23555;SDS011;11956;53.184;8.578;2023-06-26T00:53:27;9.20;;;8.18;;
23555;SDS011;11956;53.184;8.578;2023-06-26T00:56:28;9.05;;;8.25;;
23555;SDS011;11956;53.184;8.578;2023-06-26T00:59:31;9.23;;;8.25;;
23555;SDS011;11956;53.184;8.578;2023-06-26T01:02:32;9.23;;;8.32;;
23555;SDS011;11956;53.184;8.578;2023-06-26T01:05:33;10.00;;;8.93;;
23555;SDS011;11956;53.184;8.578;2023-06-26T01:08:34;8.73;;;7.93;;
23555;SDS011;11956;53.184;8.578;2023-06-26T01:11:35;9.65;;;8.68;;
23555;SDS011;11956;53.184;8.578;2023-06-26T01:14:36;9.73;;;8.10;;
23555;SDS011;11956;53.184;8.578;2023-06-26T01:17:37;10.02;;;8.90;;
23555;SDS011;11956;53.184;8.578;2023-06-26T01:20:39;9.75;;;8.75;;
23555;SDS011;11956;53.184;8.578;2023-06-26T01:26:51;9.93;;;8.93;;
23555;SDS011;11956;53.184;8.578;2023-06-26T01:29:52;9.60;;;8.60;;
23555;SDS011;11956;53.184;8.578;2023-06-26T01:32:54;10.95;;;9.13;;
23555;SDS011;11956;53.184;8.578;2023-06-26T01:35:56;9.73;;;8.55;;
23555;SDS011;11956;53.184;8.578;2023-06-26T01:38:57;9.80;;;8.57;;
23555;SDS011;11956;53.184;8.578;2023-06-26T01:41:57;9.85;;;8.32;;
23555;SDS011;11956;53.184;8.578;2023-06-26T01:45:05;10.18;;;8.82;;
23555;SDS011;11956;53.184;8.578;2023-06-26T01:48:24;12.75;;;9.30;;
23555;SDS011;11956;53.184;8.578;2023-06-26T01:51:32;11.60;;;9.07;;
23555;SDS011;11956;53.184;8.578;2023-06-26T01:54:49;12.05;;;8.70;;
23555;SDS011;11956;53.184;8.578;2023-06-26T01:58:22;12.48;;;8.98;;
23555;SDS011;11956;53.184;8.578;2023-06-26T02:01:25;11.85;;;9.02;;
23555;SDS011;11956;53.184;8.578;2023-06-26T02:04:26;13.45;;;9.57;;
23555;SDS011;11956;53.184;8.578;2023-06-26T02:07:27;10.23;;;9.00;;
23555;SDS011;11956;53.184;8.578;2023-06-26T02:10:29;10.40;;;9.27;;
23555;SDS011;11956;53.184;8.578;2023-06-26T02:13:30;10.50;;;8.63;;
23555;SDS011;11956;53.184;8.578;2023-06-26T02:16:31;11.68;;;9.23;;
23555;SDS011;11956;53.184;8.578;2023-06-26T02:19:33;10.73;;;8.90;;
23555;SDS011;11956;53.184;8.578;2023-06-26T02:22:34;12.02;;;9.43;;
23555;SDS011;11956;53.184;8.578;2023-06-26T02:25:35;11.73;;;8.98;;
23555;SDS011;11956;53.184;8.578;2023-06-26T02:28:35;11.27;;;8.80;;
23555;SDS011;11956;53.184;8.578;2023-06-26T02:31:36;12.75;;;8.90;;
23555;SDS011;11956;53.184;8.578;2023-06-26T02:34:37;12.68;;;8.77;;
23555;SDS011;11956;53.184;8.578;2023-06-26T02:37:38;10.35;;;9.25;;
23555;SDS011;11956;53.184;8.578;2023-06-26T02:40:39;12.40;;;8.95;;
23555;SDS011;11956;53.184;8.578;2023-06-26T02:43:40;15.15;;;9.43;;
23555;SDS011;11956;53.184;8.578;2023-06-26T02:46:41;11.15;;;9.40;;
23555;SDS011;11956;53.184;8.578;2023-06-26T02:49:42;12.05;;;8.57;;
23555;SDS011;11956;53.184;8.578;2023-06-26T02:52:43;10.10;;;9.02;;
23555;SDS011;11956;53.184;8.578;2023-06-26T02:55:44;12.07;;;9.45;;
23555;SDS011;11956;53.184;8.578;2023-06-26T03:01:48;11.45;;;9.10;;
23555;SDS011;11956;53.184;8.578;2023-06-26T03:04:49;11.25;;;9.07;;
23555;SDS011;11956;53.184;8.578;2023-06-26T03:07:50;9.50;;;8.60;;
23555;SDS011;11956;53.184;8.578;2023-06-26T03:10:51;9.63;;;8.60;;
23555;SDS011;11956;53.184;8.578;2023-06-26T03:13:52;13.65;;;9.38;;
23555;SDS011;11956;53.184;8.578;2023-06-26T03:16:53;10.40;;;8.70;;
23555;SDS011;11956;53.184;8.578;2023-06-26T03:19:58;11.13;;;9.40;;
23555;SDS011;11956;53.184;8.578;2023-06-26T03:23:12;14.95;;;9.18;;
23555;SDS011;11956;53.184;8.578;2023-06-26T03:26:13;12.05;;;8.95;;
23555;SDS011;11956;53.184;8.578;2023-06-26T03:29:14;10.50;;;8.55;;
23555;SDS011;11956;53.184;8.578;2023-06-26T03:32:15;12.27;;;9.18;;
23555;SDS011;11956;53.184;8.578;2023-06-26T03:35:16;13.05;;;8.68;;
23555;SDS011;11956;53.184;8.578;2023-06-26T03:38:18;11.77;;;8.20;;
23555;SDS011;11956;53.184;8.578;2023-06-26T03:41:20;12.30;;;8.98;;
23555;SDS011;11956;53.184;8.578;2023-06-26T03:44:22;11.90;;;9.18;;
23555;SDS011;11956;53.184;8.578;2023-06-26T03:47:23;11.77;;;9.20;;
23555;SDS011;11956;53.184;8.578;2023-06-26T03:50:24;13.75;;;8.68;;
23555;SDS011;11956;53.184;8.578;2023-06-26T03:53:25;10.63;;;8.88;;
23555;SDS011;11956;53.184;8.578;2023-06-26T03:56:26;9.65;;;8.15;;
23555;SDS011;11956;53.184;8.578;2023-06-26T03:59:27;11.45;;;8.45;;
23555;SDS011;11956;53.184;8.578;2023-06-26T04:02:27;10.27;;;8.57;;
23555;SDS011;11956;53.184;8.578;2023-06-26T04:05:28;9.18;;;8.20;;
23555;SDS011;11956;53.184;8.578;2023-06-26T04:08:29;9.38;;;7.75;;
23555;SDS011;11956;53.184;8.578;2023-06-26T04:11:30;8.63;;;7.65;;
23555;SDS011;11956;53.184;8.578;2023-06-26T04:14:32;8.73;;;7.57;;
23555;SDS011;11956;53.184;8.578;2023-06-26T04:17:33;8.88;;;7.68;;
23555;SDS011;11956;53.184;8.578;2023-06-26T04:20:38;9.40;;;7.47;;
23555;SDS011;11956;53.184;8.578;2023-06-26T04:24:09;13.18;;;7.60;;
23555;SDS011;11956;53.184;8.578;2023-06-26T04:27:11;11.20;;;7.88;;
23555;SDS011;11956;53.184;8.578;2023-06-26T04:30:14;8.75;;;7.30;;
23555;SDS011;11956;53.184;8.578;2023-06-26T04:33:16;8.13;;;7.30;;
23555;SDS011;11956;53.184;8.578;2023-06-26T04:36:18;7.57;;;6.88;;
23555;SDS011;11956;53.184;8.578;2023-06-26T04:39:20;8.40;;;7.60;;
23555;SDS011;11956;53.184;8.578;2023-06-26T04:42:21;8.18;;;7.30;;
23555;SDS011;11956;53.184;8.578;2023-06-26T04:45:25;9.13;;;7.55;;
23555;SDS011;11956;53.184;8.578;2023-06-26T04:48:35;11.82;;;7.63;;
23555;SDS011;11956;53.184;8.578;2023-06-26T04:51:57;9.25;;;7.57;;
23555;SDS011;11956;53.184;8.578;2023-06-26T04:55:27;8.63;;;7.18;;
23555;SDS011;11956;53.184;8.578;2023-06-26T04:58:57;8.40;;;7.55;;
23555;SDS011;11956;53.184;8.578;2023-06-26T05:01:58;8.48;;;7.22;;
23555;SDS011;11956;53.184;8.578;2023-06-26T05:04:59;7.43;;;6.65;;
23555;SDS011;11956;53.184;8.578;2023-06-26T05:08:12;9.00;;;7.18;;
23555;SDS011;11956;53.184;8.578;2023-06-26T05:11:26;10.85;;;7.35;;
23555;SDS011;11956;53.184;8.578;2023-06-26T05:14:27;8.75;;;7.18;;
23555;SDS011;11956;53.184;8.578;2023-06-26T05:17:28;9.00;;;7.43;;
23555;SDS011;11956;53.184;8.578;2023-06-26T05:20:28;9.43;;;7.40;;
23555;SDS011;11956;53.184;8.578;2023-06-26T05:23:30;9.68;;;8.10;;
23555;SDS011;11956;53.184;8.578;2023-06-26T05:26:34;9.40;;;7.30;;
23555;SDS011;11956;53.184;8.578;2023-06-26T05:29:35;9.23;;;7.57;;
23555;SDS011;11956;53.184;8.578;2023-06-26T05:32:37;9.18;;;7.38;;
23555;SDS011;11956;53.184;8.578;2023-06-26T05:35:40;9.88;;;7.78;;
23555;SDS011;11956;53.184;8.578;2023-06-26T05:38:42;8.45;;;7.65;;
23555;SDS011;11956;53.184;8.578;2023-06-26T05:41:44;8.40;;;7.05;;
23555;SDS011;11956;53.184;8.578;2023-06-26T05:44:52;9.50;;;6.90;;
23555;SDS011;11956;53.184;8.578;2023-06-26T05:47:52;9.43;;;7.32;;
23555;SDS011;11956;53.184;8.578;2023-06-26T05:50:53;7.95;;;6.80;;
23555;SDS011;11956;53.184;8.578;2023-06-26T05:53:55;9.48;;;6.90;;
23555;SDS011;11956;53.184;8.578;2023-06-26T05:56:56;7.63;;;6.88;;
23555;SDS011;11956;53.184;8.578;2023-06-26T06:00:01;7.35;;;6.57;;
23555;SDS011;11956;53.184;8.578;2023-06-26T06:03:13;14.35;;;7.57;;
23555;SDS011;11956;53.184;8.578;2023-06-26T06:06:14;7.10;;;6.40;;
23555;SDS011;11956;53.184;8.578;2023-06-26T06:09:16;7.25;;;6.55;;
23555;SDS011;11956;53.184;8.578;2023-06-26T06:12:17;7.30;;;6.60;;
23555;SDS011;11956;53.184;8.578;2023-06-26T06:15:18;8.15;;;6.70;;
23555;SDS011;11956;53.184;8.578;2023-06-26T06:18:18;8.02;;;6.65;;
23555;SDS011;11956;53.184;8.578;2023-06-26T06:21:19;12.10;;;6.60;;
23555;SDS011;11956;53.184;8.578;2023-06-26T06:24:20;10.15;;;6.93;;
23555;SDS011;11956;53.184;8.578;2023-06-26T06:27:21;7.68;;;6.68;;
23555;SDS011;11956;53.184;8.578;2023-06-26T06:30:23;9.90;;;7.57;;
23555;SDS011;11956;53.184;8.578;2023-06-26T06:33:24;6.57;;;5.80;;
23555;SDS011;11956;53.184;8.578;2023-06-26T06:36:25;11.48;;;7.25;;
23555;SDS011;11956;53.184;8.578;2023-06-26T06:39:26;8.05;;;6.65;;
23555;SDS011;11956;53.184;8.578;2023-06-26T06:42:27;7.88;;;6.70;;
23555;SDS011;11956;53.184;8.578;2023-06-26T06:45:28;13.77;;;7.85;;
23555;SDS011;11956;53.184;8.578;2023-06-26T06:48:29;10.25;;;9.18;;
23555;SDS011;11956;53.184;8.578;2023-06-26T06:51:31;10.50;;;8.88;;
23555;SDS011;11956;53.184;8.578;2023-06-26T06:54:32;8.82;;;8.00;;
23555;SDS011;11956;53.184;8.578;2023-06-26T06:57:55;10.90;;;9.15;;
23555;SDS011;11956;53.184;8.578;2023-06-26T07:00:56;10.18;;;8.95;;
23555;SDS011;11956;53.184;8.578;2023-06-26T07:03:57;10.70;;;9.18;;
23555;SDS011;11956;53.184;8.578;2023-06-26T07:06:58;10.38;;;9.05;;
23555;SDS011;11956;53.184;8.578;2023-06-26T07:10:00;11.23;;;9.00;;
23555;SDS011;11956;53.184;8.578;2023-06-26T07:13:04;8.70;;;7.80;;
23555;SDS011;11956;53.184;8.578;2023-06-26T07:16:05;7.65;;;6.85;;
23555;SDS011;11956;53.184;8.578;2023-06-26T07:19:06;9.15;;;7.28;;
23555;SDS011;11956;53.184;8.578;2023-06-26T07:22:07;10.32;;;8.00;;
23555;SDS011;11956;53.184;8.578;2023-06-26T07:25:08;8.32;;;7.07;;
23555;SDS011;11956;53.184;8.578;2023-06-26T07:28:09;9.55;;;7.93;;
23555;SDS011;11956;53.184;8.578;2023-06-26T07:34:12;10.70;;;7.85;;
23555;SDS011;11956;53.184;8.578;2023-06-26T07:37:13;11.73;;;9.15;;
23555;SDS011;11956;53.184;8.578;2023-06-26T07:40:14;11.00;;;8.35;;
23555;SDS011;11956;53.184;8.578;2023-06-26T07:43:17;11.93;;;9.02;;
23555;SDS011;11956;53.184;8.578;2023-06-26T07:46:18;15.93;;;9.32;;
23555;SDS011;11956;53.184;8.578;2023-06-26T07:49:19;13.30;;;9.00;;
23555;SDS011;11956;53.184;8.578;2023-06-26T07:52:20;16.83;;;10.02;;
23555;SDS011;11956;53.184;8.578;2023-06-26T07:55:21;12.00;;;9.85;;
23555;SDS011;11956;53.184;8.578;2023-06-26T07:58:22;13.63;;;9.75;;
23555;SDS011;11956;53.184;8.578;2023-06-26T08:01:24;13.35;;;9.88;;
23555;SDS011;11956;53.184;8.578;2023-06-26T08:04:26;11.10;;;9.27;;
23555;SDS011;11956;53.184;8.578;2023-06-26T08:07:29;10.88;;;9.07;;
23555;SDS011;11956;53.184;8.578;2023-06-26T08:10:30;13.45;;;8.85;;
23555;SDS011;11956;53.184;8.578;2023-06-26T08:13:31;14.23;;;10.55;;
23555;SDS011;11956;53.184;8.578;2023-06-26T08:16:32;17.88;;;10.23;;
23555;SDS011;11956;53.184;8.578;2023-06-26T08:19:33;19.33;;;11.63;;
23555;SDS011;11956;53.184;8.578;2023-06-26T08:22:34;16.70;;;11.80;;
23555;SDS011;11956;53.184;8.578;2023-06-26T08:25:35;18.00;;;12.27;;
23555;SDS011;11956;53.184;8.578;2023-06-26T08:28:36;15.10;;;11.43;;
23555;SDS011;11956;53.184;8.578;2023-06-26T08:31:38;24.98;;;13.23;;
23555;SDS011;11956;53.184;8.578;2023-06-26T08:34:40;19.38;;;14.95;;
23555;SDS011;11956;53.184;8.578;2023-06-26T08:37:41;23.90;;;14.52;;
23555;SDS011;11956;53.184;8.578;2023-06-26T08:40:42;19.63;;;14.95;;
23555;SDS011;11956;53.184;8.578;2023-06-26T08:43:43;21.60;;;15.43;;
23555;SDS011;11956;53.184;8.578;2023-06-26T08:46:45;21.60;;;14.85;;
23555;SDS011;11956;53.184;8.578;2023-06-26T08:49:51;19.52;;;13.32;;
23555;SDS011;11956;53.184;8.578;2023-06-26T08:53:13;21.13;;;13.57;;
23555;SDS011;11956;53.184;8.578;2023-06-26T08:56:37;15.48;;;10.98;;
23555;SDS011;11956;53.184;8.578;2023-06-26T08:59:43;18.40;;;10.57;;
23555;SDS011;11956;53.184;8.578;2023-06-26T09:02:44;14.55;;;9.57;;
23555;SDS011;11956;53.184;8.578;2023-06-26T09:05:45;14.35;;;9.02;;
23555;SDS011;11956;53.184;8.578;2023-06-26T09:08:46;11.40;;;7.40;;
23555;SDS011;11956;53.184;8.578;2023-06-26T09:11:47;13.07;;;6.72;;
23555;SDS011;11956;53.184;8.578;2023-06-26T09:14:48;11.07;;;6.07;;
23555;SDS011;11956;53.184;8.578;2023-06-26T09:17:50;12.73;;;5.50;;
23555;SDS011;11956;53.184;8.578;2023-06-26T09:20:57;9.55;;;4.25;;
23555;SDS011;11956;53.184;8.578;2023-06-26T09:23:58;8.88;;;4.15;;
23555;SDS011;11956;53.184;8.578;2023-06-26T09:26:59;10.57;;;3.67;;
23555;SDS011;11956;53.184;8.578;2023-06-26T09:30:02;8.82;;;3.40;;
23555;SDS011;11956;53.184;8.578;2023-06-26T09:33:22;8.25;;;3.95;;
23555;SDS011;11956;53.184;8.578;2023-06-26T09:36:23;8.38;;;3.33;;
23555;SDS011;11956;53.184;8.578;2023-06-26T09:39:29;8.55;;;3.58;;
23555;SDS011;11956;53.184;8.578;2023-06-26T09:42:31;11.23;;;3.10;;
23555;SDS011;11956;53.184;8.578;2023-06-26T09:45:32;5.28;;;2.40;;
23555;SDS011;11956;53.184;8.578;2023-06-26T09:48:36;7.53;;;2.47;;
23555;SDS011;11956;53.184;8.578;2023-06-26T09:51:38;5.43;;;2.15;;
23555;SDS011;11956;53.184;8.578;2023-06-26T09:54:42;6.38;;;2.13;;
23555;SDS011;11956;53.184;8.578;2023-06-26T09:57:46;8.00;;;2.55;;
23555;SDS011;11956;53.184;8.578;2023-06-26T10:00:49;8.48;;;1.95;;
23555;SDS011;11956;53.184;8.578;2023-06-26T10:03:52;4.22;;;1.83;;
23555;SDS011;11956;53.184;8.578;2023-06-26T10:06:55;4.35;;;2.10;;
23555;SDS011;11956;53.184;8.578;2023-06-26T10:09:57;5.75;;;2.13;;
23555;SDS011;11956;53.184;8.578;2023-06-26T10:13:01;6.30;;;2.03;;
23555;SDS011;11956;53.184;8.578;2023-06-26T10:16:16;9.30;;;2.28;;
23555;SDS011;11956;53.184;8.578;2023-06-26T10:19:28;5.30;;;1.77;;
23555;SDS011;11956;53.184;8.578;2023-06-26T10:22:33;9.07;;;1.80;;
23555;SDS011;11956;53.184;8.578;2023-06-26T10:25:42;4.38;;;1.60;;
23555;SDS011;11956;53.184;8.578;2023-06-26T10:28:46;7.53;;;1.52;;
23555;SDS011;11956;53.184;8.578;2023-06-26T10:31:53;3.30;;;1.35;;
23555;SDS011;11956;53.184;8.578;2023-06-26T10:34:59;4.30;;;1.50;;
23555;SDS011;11956;53.184;8.578;2023-06-26T10:38:03;3.80;;;1.40;;
23555;SDS011;11956;53.184;8.578;2023-06-26T10:41:10;6.05;;;1.65;;
23555;SDS011;11956;53.184;8.578;2023-06-26T10:44:13;4.22;;;1.55;;
23555;SDS011;11956;53.184;8.578;2023-06-26T10:47:32;5.00;;;1.23;;
23555;SDS011;11956;53.184;8.578;2023-06-26T10:50:35;5.47;;;1.38;;
23555;SDS011;11956;53.184;8.578;2023-06-26T10:53:37;4.18;;;1.02;;
23555;SDS011;11956;53.184;8.578;2023-06-26T10:56:48;7.20;;;1.88;;
23555;SDS011;11956;53.184;8.578;2023-06-26T11:00:08;5.45;;;1.40;;
23555;SDS011;11956;53.184;8.578;2023-06-26T11:03:23;5.47;;;1.33;;
23555;SDS011;11956;53.184;8.578;2023-06-26T11:06:24;5.95;;;1.50;;
23555;SDS011;11956;53.184;8.578;2023-06-26T11:09:25;8.50;;;1.60;;
23555;SDS011;11956;53.184;8.578;2023-06-26T11:15:44;5.85;;;2.00;;
23555;SDS011;11956;53.184;8.578;2023-06-26T11:18:45;4.15;;;1.42;;
23555;SDS011;11956;53.184;8.578;2023-06-26T11:21:46;4.07;;;1.45;;
23555;SDS011;11956;53.184;8.578;2023-06-26T11:24:48;5.70;;;1.80;;
23555;SDS011;11956;53.184;8.578;2023-06-26T11:27:54;5.63;;;1.60;;
23555;SDS011;11956;53.184;8.578;2023-06-26T11:30:55;4.35;;;1.40;;
23555;SDS011;11956;53.184;8.578;2023-06-26T11:33:57;3.55;;;1.48;;
23555;SDS011;11956;53.184;8.578;2023-06-26T11:36:59;4.90;;;1.52;;
23555;SDS011;11956;53.184;8.578;2023-06-26T11:40:20;5.75;;;1.73;;
23555;SDS011;11956;53.184;8.578;2023-06-26T11:43:22;4.15;;;1.70;;
23555;SDS011;11956;53.184;8.578;2023-06-26T11:46:23;6.35;;;1.50;;
23555;SDS011;11956;53.184;8.578;2023-06-26T11:49:24;8.38;;;1.77;;
23555;SDS011;11956;53.184;8.578;2023-06-26T11:52:26;3.80;;;1.45;;
23555;SDS011;11956;53.184;8.578;2023-06-26T11:55:27;3.38;;;1.50;;
23555;SDS011;11956;53.184;8.578;2023-06-26T11:58:28;3.90;;;1.30;;
23555;SDS011;11956;53.184;8.578;2023-06-26T12:01:36;5.18;;;1.50;;
23555;SDS011;11956;53.184;8.578;2023-06-26T12:04:47;4.20;;;1.45;;
23555;SDS011;11956;53.184;8.578;2023-06-26T12:07:48;4.90;;;1.70;;
23555;SDS011;11956;53.184;8.578;2023-06-26T12:13:52;8.13;;;1.55;;
23555;SDS011;11956;53.184;8.578;2023-06-26T12:16:53;3.03;;;1.50;;
23555;SDS011;11956;53.184;8.578;2023-06-26T12:19:54;3.13;;;1.38;;
23555;SDS011;11956;53.184;8.578;2023-06-26T12:22:55;4.30;;;1.52;;
23555;SDS011;11956;53.184;8.578;2023-06-26T12:25:56;3.55;;;1.45;;
23555;SDS011;11956;53.184;8.578;2023-06-26T12:29:07;5.15;;;1.83;;
23555;SDS011;11956;53.184;8.578;2023-06-26T12:32:11;3.58;;;1.73;;
23555;SDS011;11956;53.184;8.578;2023-06-26T12:35:12;5.40;;;1.60;;
23555;SDS011;11956;53.184;8.578;2023-06-26T12:38:13;5.28;;;1.60;;
23555;SDS011;11956;53.184;8.578;2023-06-26T12:41:15;3.67;;;1.42;;
23555;SDS011;11956;53.184;8.578;2023-06-26T12:44:26;5.13;;;1.50;;
23555;SDS011;11956;53.184;8.578;2023-06-26T12:47:29;3.13;;;1.70;;
23555;SDS011;11956;53.184;8.578;2023-06-26T12:50:36;3.65;;;1.70;;
23555;SDS011;11956;53.184;8.578;2023-06-26T12:53:43;3.78;;;1.63;;
23555;SDS011;11956;53.184;8.578;2023-06-26T12:56:44;4.00;;;1.50;;
23555;SDS011;11956;53.184;8.578;2023-06-26T12:59:45;3.42;;;1.77;;
23555;SDS011;11956;53.184;8.578;2023-06-26T13:02:46;5.18;;;1.70;;
23555;SDS011;11956;53.184;8.578;2023-06-26T13:05:47;9.55;;;1.98;;
23555;SDS011;11956;53.184;8.578;2023-06-26T13:08:47;5.57;;;1.80;;
23555;SDS011;11956;53.184;8.578;2023-06-26T13:11:48;5.63;;;1.80;;
23555;SDS011;11956;53.184;8.578;2023-06-26T13:14:49;6.55;;;1.70;;
23555;SDS011;11956;53.184;8.578;2023-06-26T13:17:50;5.82;;;1.98;;
23555;SDS011;11956;53.184;8.578;2023-06-26T13:20:51;4.25;;;1.80;;
23555;SDS011;11956;53.184;8.578;2023-06-26T13:23:52;4.13;;;1.83;;
23555;SDS011;11956;53.184;8.578;2023-06-26T13:26:53;6.10;;;1.80;;
23555;SDS011;11956;53.184;8.578;2023-06-26T13:29:54;4.65;;;2.08;;
23555;SDS011;11956;53.184;8.578;2023-06-26T13:32:55;4.55;;;1.75;;
23555;SDS011;11956;53.184;8.578;2023-06-26T13:35:56;6.95;;;1.80;;
23555;SDS011;11956;53.184;8.578;2023-06-26T13:38:57;4.13;;;1.90;;
23555;SDS011;11956;53.184;8.578;2023-06-26T13:41:58;2.92;;;1.40;;
23555;SDS011;11956;53.184;8.578;2023-06-26T13:45:00;3.47;;;1.63;;
23555;SDS011;11956;53.184;8.578;2023-06-26T13:48:01;5.95;;;1.67;;
23555;SDS011;11956;53.184;8.578;2023-06-26T13:51:02;3.65;;;1.60;;
23555;SDS011;11956;53.184;8.578;2023-06-26T13:54:02;4.50;;;1.60;;
23555;SDS011;11956;53.184;8.578;2023-06-26T13:57:03;5.47;;;1.73;;
23555;SDS011;11956;53.184;8.578;2023-06-26T14:00:05;3.25;;;1.70;;
23555;SDS011;11956;53.184;8.578;2023-06-26T14:03:12;2.80;;;1.40;;
23555;SDS011;11956;53.184;8.578;2023-06-26T14:06:13;4.78;;;1.58;;
23555;SDS011;11956;53.184;8.578;2023-06-26T14:09:14;4.05;;;1.50;;
23555;SDS011;11956;53.184;8.578;2023-06-26T14:12:15;11.15;;;1.90;;
23555;SDS011;11956;53.184;8.578;2023-06-26T14:15:16;6.15;;;1.60;;
23555;SDS011;11956;53.184;8.578;2023-06-26T14:18:17;3.58;;;1.60;;
23555;SDS011;11956;53.184;8.578;2023-06-26T14:21:18;2.95;;;1.50;;
23555;SDS011;11956;53.184;8.578;2023-06-26T14:24:19;4.53;;;1.60;;
23555;SDS011;11956;53.184;8.578;2023-06-26T14:27:20;3.92;;;1.55;;
23555;SDS011;11956;53.184;8.578;2023-06-26T14:30:21;4.65;;;1.60;;
23555;SDS011;11956;53.184;8.578;2023-06-26T14:33:22;3.40;;;1.50;;
23555;SDS011;11956;53.184;8.578;2023-06-26T14:36:23;5.75;;;1.83;;
23555;SDS011;11956;53.184;8.578;2023-06-26T14:39:25;5.15;;;1.77;;
23555;SDS011;11956;53.184;8.578;2023-06-26T14:42:26;4.82;;;1.50;;
23555;SDS011;11956;53.184;8.578;2023-06-26T14:45:27;5.82;;;1.95;;
23555;SDS011;11956;53.184;8.578;2023-06-26T14:48:27;3.90;;;1.20;;
23555;SDS011;11956;53.184;8.578;2023-06-26T14:51:28;4.60;;;1.30;;
23555;SDS011;11956;53.184;8.578;2023-06-26T14:54:29;4.68;;;1.70;;
23555;SDS011;11956;53.184;8.578;2023-06-26T14:57:30;5.60;;;1.40;;
23555;SDS011;11956;53.184;8.578;2023-06-26T15:00:32;7.95;;;2.17;;
23555;SDS011;11956;53.184;8.578;2023-06-26T15:03:33;4.57;;;1.23;;
23555;SDS011;11956;53.184;8.578;2023-06-26T15:06:34;6.63;;;1.75;;
23555;SDS011;11956;53.184;8.578;2023-06-26T15:09:35;7.03;;;1.50;;
23555;SDS011;11956;53.184;8.578;2023-06-26T15:12:35;5.43;;;1.65;;
23555;SDS011;11956;53.184;8.578;2023-06-26T15:15:36;5.70;;;1.33;;
23555;SDS011;11956;53.184;8.578;2023-06-26T15:18:37;5.97;;;1.52;;
23555;SDS011;11956;53.184;8.578;2023-06-26T15:21:38;4.03;;;1.17;;
23555;SDS011;11956;53.184;8.578;2023-06-26T15:24:39;4.60;;;1.20;;
23555;SDS011;11956;53.184;8.578;2023-06-26T15:27:40;2.25;;;0.88;;
23555;SDS011;11956;53.184;8.578;2023-06-26T15:30:40;4.03;;;1.10;;
23555;SDS011;11956;53.184;8.578;2023-06-26T15:33:41;2.67;;;1.00;;
23555;SDS011;11956;53.184;8.578;2023-06-26T15:36:42;3.60;;;1.30;;
23555;SDS011;11956;53.184;8.578;2023-06-26T15:39:43;4.75;;;1.30;;
23555;SDS011;11956;53.184;8.578;2023-06-26T15:42:44;3.20;;;0.88;;
23555;SDS011;11956;53.184;8.578;2023-06-26T15:45:49;6.03;;;0.93;;
23555;SDS011;11956;53.184;8.578;2023-06-26T15:48:50;3.72;;;1.02;;
23555;SDS011;11956;53.184;8.578;2023-06-26T15:51:51;2.50;;;1.17;;
23555;SDS011;11956;53.184;8.578;2023-06-26T15:54:52;3.22;;;1.33;;
23555;SDS011;11956;53.184;8.578;2023-06-26T15:57:52;6.90;;;1.15;;
23555;SDS011;11956;53.184;8.578;2023-06-26T16:00:53;4.07;;;1.10;;
23555;SDS011;11956;53.184;8.578;2023-06-26T16:03:54;4.03;;;1.00;;
23555;SDS011;11956;53.184;8.578;2023-06-26T16:06:55;4.00;;;1.13;;
23555;SDS011;11956;53.184;8.578;2023-06-26T16:09:57;3.47;;;0.85;;
23555;SDS011;11956;53.184;8.578;2023-06-26T16:12:58;3.15;;;1.08;;
23555;SDS011;11956;53.184;8.578;2023-06-26T16:15:59;5.55;;;1.17;;
23555;SDS011;11956;53.184;8.578;2023-06-26T16:19:00;3.25;;;0.75;;
23555;SDS011;11956;53.184;8.578;2023-06-26T16:22:02;4.28;;;1.15;;
23555;SDS011;11956;53.184;8.578;2023-06-26T16:25:03;3.30;;;1.48;;
23555;SDS011;11956;53.184;8.578;2023-06-26T16:28:05;3.22;;;1.17;;
23555;SDS011;11956;53.184;8.578;2023-06-26T16:31:06;7.57;;;1.25;;
23555;SDS011;11956;53.184;8.578;2023-06-26T16:34:06;4.47;;;1.35;;
23555;SDS011;11956;53.184;8.578;2023-06-26T16:37:07;3.20;;;1.20;;
23555;SDS011;11956;53.184;8.578;2023-06-26T16:40:08;3.38;;;1.05;;
23555;SDS011;11956;53.184;8.578;2023-06-26T16:43:10;3.38;;;1.17;;
23555;SDS011;11956;53.184;8.578;2023-06-26T16:46:14;5.18;;;1.20;;
23555;SDS011;11956;53.184;8.578;2023-06-26T16:49:15;7.00;;;1.42;;
23555;SDS011;11956;53.184;8.578;2023-06-26T16:52:16;7.05;;;1.40;;
23555;SDS011;11956;53.184;8.578;2023-06-26T16:55:16;6.20;;;1.42;;
23555;SDS011;11956;53.184;8.578;2023-06-26T16:58:17;5.00;;;1.70;;
23555;SDS011;11956;53.184;8.578;2023-06-26T17:01:18;5.55;;;1.50;;
23555;SDS011;11956;53.184;8.578;2023-06-26T17:04:24;6.80;;;1.70;;
23555;SDS011;11956;53.184;8.578;2023-06-26T17:07:25;7.75;;;1.50;;
23555;SDS011;11956;53.184;8.578;2023-06-26T17:10:26;6.15;;;1.70;;
23555;SDS011;11956;53.184;8.578;2023-06-26T17:13:27;8.18;;;1.77;;
23555;SDS011;11956;53.184;8.578;2023-06-26T17:16:28;5.57;;;1.55;;
23555;SDS011;11956;53.184;8.578;2023-06-26T17:19:28;4.97;;;1.55;;
23555;SDS011;11956;53.184;8.578;2023-06-26T17:22:31;8.40;;;1.63;;
23555;SDS011;11956;53.184;8.578;2023-06-26T17:25:32;7.28;;;1.40;;
23555;SDS011;11956;53.184;8.578;2023-06-26T17:28:34;9.27;;;1.60;;
23555;SDS011;11956;53.184;8.578;2023-06-26T17:31:35;4.93;;;1.45;;
23555;SDS011;11956;53.184;8.578;2023-06-26T17:34:36;4.85;;;1.50;;
23555;SDS011;11956;53.184;8.578;2023-06-26T17:37:37;7.40;;;1.75;;
23555;SDS011;11956;53.184;8.578;2023-06-26T17:40:37;8.65;;;1.70;;
23555;SDS011;11956;53.184;8.578;2023-06-26T17:43:38;7.65;;;1.60;;
23555;SDS011;11956;53.184;8.578;2023-06-26T17:46:39;7.32;;;1.80;;
23555;SDS011;11956;53.184;8.578;2023-06-26T17:49:40;8.25;;;1.90;;
23555;SDS011;11956;53.184;8.578;2023-06-26T17:52:41;9.65;;;2.00;;
23555;SDS011;11956;53.184;8.578;2023-06-26T17:55:42;5.70;;;1.60;;
23555;SDS011;11956;53.184;8.578;2023-06-26T17:58:43;6.90;;;1.83;;
23555;SDS011;11956;53.184;8.578;2023-06-26T18:01:43;7.85;;;1.60;;
23555;SDS011;11956;53.184;8.578;2023-06-26T18:04:45;6.53;;;1.70;;
23555;SDS011;11956;53.184;8.578;2023-06-26T18:07:45;9.65;;;2.45;;
23555;SDS011;11956;53.184;8.578;2023-06-26T18:10:47;10.73;;;2.03;;
23555;SDS011;11956;53.184;8.578;2023-06-26T18:13:47;7.68;;;1.90;;
23555;SDS011;11956;53.184;8.578;2023-06-26T18:16:48;7.90;;;2.33;;
23555;SDS011;11956;53.184;8.578;2023-06-26T18:19:49;7.93;;;1.90;;
23555;SDS011;11956;53.184;8.578;2023-06-26T18:22:50;5.90;;;1.70;;
23555;SDS011;11956;53.184;8.578;2023-06-26T18:25:53;9.03;;;1.87;;
23555;SDS011;11956;53.184;8.578;2023-06-26T18:28:54;7.57;;;1.75;;
23555;SDS011;11956;53.184;8.578;2023-06-26T18:31:56;8.27;;;1.60;;